createdAt,value
2019-03-04T00:00:45.945Z,22.3
2019-03-04T00:01:36.604Z,22.3
2019-03-04T00:02:25.797Z,22.3
2019-03-04T00:03:16.706Z,22.3
2019-03-04T00:04:07.017Z,22.3
2019-03-04T00:04:56.234Z,22.3
2019-03-04T00:05:45.476Z,22.3
2019-03-04T00:06:35.824Z,22.3
2019-03-04T00:07:25.652Z,22.2
2019-03-04T00:08:16.461Z,22.1
2019-03-04T00:09:07.080Z,22.1
2019-03-04T00:09:57.154Z,22.1
2019-03-04T00:10:46.526Z,22.1
2019-03-04T00:11:36.240Z,22.1
2019-03-04T00:12:26.883Z,22.1
2019-03-04T00:13:16.404Z,22.1
2019-03-04T00:14:07.029Z,22.3
2019-03-04T00:14:57.847Z,22.4
2019-03-04T00:15:47.006Z,22.4
2019-03-04T00:16:37.921Z,22.4
2019-03-04T00:17:27.228Z,22.5
2019-03-04T00:18:17.785Z,22.6
2019-03-04T00:19:07.833Z,22.6
2019-03-04T00:19:57.082Z,22.7
2019-03-04T00:20:47.658Z,22.8
2019-03-04T00:21:38.171Z,22.8
2019-03-04T00:22:28.333Z,22.9
2019-03-04T00:23:17.881Z,22.9
2019-03-04T00:24:07.906Z,23
2019-03-04T00:24:58.270Z,23.1
2019-03-04T00:25:48.300Z,23.1
2019-03-04T00:26:38.130Z,23.1
2019-03-04T00:27:28.150Z,23.1
2019-03-04T00:28:17.888Z,23.1
2019-03-04T00:29:07.675Z,23.1
2019-03-04T00:29:58.863Z,23.1
2019-03-04T00:30:48.625Z,23.1
2019-03-04T00:31:38.130Z,23.1
2019-03-04T00:32:29.013Z,23.3
2019-03-04T00:33:17.688Z,23.3
2019-03-04T00:34:08.850Z,23.4
2019-03-04T00:34:58.412Z,23.5
2019-03-04T00:35:48.967Z,23.6
2019-03-04T00:36:37.925Z,23.7
2019-03-04T00:37:28.833Z,23.8
2019-03-04T00:38:18.895Z,23.9
2019-03-04T00:39:08.652Z,23.9
2019-03-04T00:39:59.265Z,24.1
2019-03-04T00:40:49.063Z,24.1
2019-03-04T00:41:38.875Z,24.1
2019-03-04T00:42:28.614Z,24.1
2019-03-04T00:43:18.969Z,24
2019-03-04T00:44:08.714Z,23.9
2019-03-04T00:44:59.399Z,23.9
2019-03-04T00:45:49.461Z,23.8
2019-03-04T00:46:39.190Z,23.7
2019-03-04T00:47:29.807Z,23.6
2019-03-04T00:48:19.885Z,23.6
2019-03-04T00:49:09.664Z,23.5
2019-03-04T00:50:01.117Z,23.4
2019-03-04T00:50:49.473Z,23.3
2019-03-04T00:51:40.137Z,23.2
2019-03-04T00:52:29.336Z,23.1
2019-03-04T00:53:20.254Z,23.1
2019-03-04T00:54:09.816Z,23
2019-03-04T00:55:00.405Z,22.9
2019-03-04T00:55:50.643Z,22.9
2019-03-04T00:56:40.446Z,22.9
2019-03-04T00:57:30.508Z,22.9
2019-03-04T00:58:20.006Z,22.8
2019-03-04T00:59:10.337Z,22.8
2019-03-04T01:00:00.287Z,22.8
2019-03-04T01:00:50.473Z,22.8
2019-03-04T01:01:40.249Z,22.7
2019-03-04T01:02:30.003Z,22.6
2019-03-04T01:03:20.435Z,22.6
2019-03-04T01:04:10.966Z,22.6
2019-03-04T01:04:59.931Z,22.6
2019-03-04T01:05:50.800Z,22.5
2019-03-04T01:06:41.433Z,22.5
2019-03-04T01:07:30.422Z,22.4
2019-03-04T01:08:20.723Z,22.4
2019-03-04T01:09:11.049Z,22.4
2019-03-04T01:10:15.276Z,22.4
2019-03-04T01:10:50.671Z,22.5
2019-03-04T01:11:41.285Z,22.6
2019-03-04T01:12:31.590Z,22.6
2019-03-04T01:13:21.075Z,22.7
2019-03-04T01:14:11.130Z,22.7
2019-03-04T01:15:02.461Z,22.8
2019-03-04T01:15:51.022Z,22.8
2019-03-04T01:16:41.300Z,22.8
2019-03-04T01:17:31.360Z,22.9
2019-03-04T01:18:21.182Z,23
2019-03-04T01:19:12.038Z,23.1
2019-03-04T01:20:02.250Z,23.3
2019-03-04T01:20:51.930Z,23.4
2019-03-04T01:21:42.207Z,23.5
2019-03-04T01:22:32.577Z,23.6
2019-03-04T01:23:22.327Z,23.7
2019-03-04T01:24:11.870Z,23.8
2019-03-04T01:25:02.245Z,23.9
2019-03-04T01:25:52.544Z,24
2019-03-04T01:26:42.569Z,24.1
2019-03-04T01:27:32.331Z,24.1
2019-03-04T01:28:22.115Z,24.3
2019-03-04T01:29:12.237Z,24.3
2019-03-04T01:30:02.667Z,24.3
2019-03-04T01:30:52.289Z,24.3
2019-03-04T01:31:44.623Z,24.2
2019-03-04T01:32:32.679Z,24.1
2019-03-04T01:33:23.059Z,24
2019-03-04T01:34:13.107Z,23.9
2019-03-04T01:35:03.240Z,23.8
2019-03-04T01:35:53.739Z,23.8
2019-03-04T01:36:42.722Z,23.7
2019-03-04T01:37:32.484Z,23.7
2019-03-04T01:38:23.109Z,23.6
2019-03-04T01:39:13.714Z,23.5
2019-03-04T01:40:02.939Z,23.4
2019-03-04T01:40:54.133Z,23.4
2019-03-04T01:41:43.372Z,23.3
2019-03-04T01:42:33.681Z,23.3
2019-03-04T01:43:23.545Z,23.1
2019-03-04T01:44:13.256Z,23.1
2019-03-04T01:45:03.223Z,23.1
2019-03-04T01:45:54.184Z,23.1
2019-03-04T01:46:44.029Z,23.1
2019-03-04T01:47:33.738Z,23
2019-03-04T01:48:23.395Z,23
2019-03-04T01:49:12.820Z,23
2019-03-04T01:50:03.530Z,22.9
2019-03-04T01:50:53.420Z,22.9
2019-03-04T01:51:44.308Z,22.8
2019-03-04T01:52:34.218Z,22.8
2019-03-04T01:53:24.758Z,22.8
2019-03-04T01:54:13.664Z,22.7
2019-03-04T01:55:04.388Z,22.7
2019-03-04T01:55:54.856Z,22.7
2019-03-04T01:56:44.977Z,22.6
2019-03-04T01:57:34.440Z,22.6
2019-03-04T01:58:24.818Z,22.6
2019-03-04T01:59:13.985Z,22.6
2019-03-04T02:00:03.886Z,22.7
2019-03-04T02:00:54.668Z,22.7
2019-03-04T02:01:44.810Z,22.8
2019-03-04T02:02:35.399Z,22.8
2019-03-04T02:03:24.647Z,22.8
2019-03-04T02:04:14.074Z,22.9
2019-03-04T02:05:05.885Z,22.9
2019-03-04T02:05:54.479Z,23
2019-03-04T02:06:44.824Z,23.1
2019-03-04T02:07:34.952Z,23.2
2019-03-04T02:08:24.961Z,23.3
2019-03-04T02:09:15.290Z,23.4
2019-03-04T02:10:05.039Z,23.6
2019-03-04T02:10:55.664Z,23.6
2019-03-04T02:11:45.697Z,23.8
2019-03-04T02:12:36.330Z,23.9
2019-03-04T02:13:25.290Z,24
2019-03-04T02:14:15.403Z,24.1
2019-03-04T02:15:06.624Z,24.1
2019-03-04T02:15:55.269Z,24.3
2019-03-04T02:16:45.511Z,24.3
2019-03-04T02:17:35.047Z,24.4
2019-03-04T02:18:26.204Z,24.4
2019-03-04T02:19:16.272Z,24.3
2019-03-04T02:20:05.667Z,24.3
2019-03-04T02:20:56.382Z,24.2
2019-03-04T02:21:46.126Z,24.1
2019-03-04T02:22:36.201Z,24
2019-03-04T02:23:26.068Z,23.9
2019-03-04T02:24:15.532Z,23.9
2019-03-04T02:25:06.714Z,23.9
2019-03-04T02:25:55.701Z,23.8
2019-03-04T02:26:46.279Z,23.7
2019-03-04T02:27:35.621Z,23.6
2019-03-04T02:28:25.779Z,23.5
2019-03-04T02:29:16.684Z,23.4
2019-03-04T02:30:07.002Z,23.4
2019-03-04T02:30:57.464Z,23.3
2019-03-04T02:31:47.499Z,23.3
2019-03-04T02:32:36.980Z,23.2
2019-03-04T02:33:26.027Z,23.2
2019-03-04T02:34:17.791Z,23.2
2019-03-04T02:35:07.073Z,23.1
2019-03-04T02:35:56.160Z,23.1
2019-03-04T02:36:47.892Z,23.1
2019-03-04T02:37:37.669Z,23.1
2019-03-04T02:38:27.179Z,23
2019-03-04T02:39:16.751Z,23
2019-03-04T02:40:07.046Z,22.9
2019-03-04T02:40:57.578Z,22.9
2019-03-04T02:41:48.471Z,22.9
2019-03-04T02:42:38.225Z,22.8
2019-03-04T02:43:27.753Z,22.8
2019-03-04T02:44:18.101Z,22.8
2019-03-04T02:45:08.156Z,22.7
2019-03-04T02:45:57.699Z,22.7
2019-03-04T02:46:48.885Z,22.7
2019-03-04T02:47:38.609Z,22.8
2019-03-04T02:48:28.221Z,22.8
2019-03-04T02:49:18.776Z,22.9
2019-03-04T02:50:08.490Z,22.9
2019-03-04T02:50:58.086Z,22.9
2019-03-04T02:51:48.329Z,22.9
2019-03-04T02:52:38.516Z,23
2019-03-04T02:53:28.318Z,23.1
2019-03-04T02:54:18.106Z,23.1
2019-03-04T02:55:08.327Z,23.2
2019-03-04T02:55:58.658Z,23.3
2019-03-04T02:56:49.285Z,23.4
2019-03-04T02:57:38.453Z,23.6
2019-03-04T02:58:28.655Z,23.7
2019-03-04T02:59:18.930Z,23.8
2019-03-04T03:00:08.514Z,23.9
2019-03-04T03:00:59.560Z,24
2019-03-04T03:01:48.800Z,24.1
2019-03-04T03:02:38.537Z,24.1
2019-03-04T03:03:29.276Z,24.2
2019-03-04T03:04:19.566Z,24.1
2019-03-04T06:05:50.529Z,24.5
2019-03-04T06:06:41.694Z,24.4
2019-03-04T06:07:31.535Z,24.3
2019-03-04T06:08:21.548Z,24.2
2019-03-04T06:09:10.774Z,24.1
2019-03-04T06:10:01.287Z,24
2019-03-04T06:10:50.927Z,23.9
2019-03-04T06:11:41.199Z,23.9
2019-03-04T06:12:30.692Z,23.8
2019-03-04T06:13:21.084Z,23.8
2019-03-04T06:14:11.947Z,23.8
2019-03-04T06:15:02.293Z,23.6
2019-03-04T06:15:51.277Z,23.5
2019-03-04T06:16:51.744Z,23.4
2019-03-04T06:17:31.066Z,23.4
2019-03-04T06:18:21.436Z,23.3
2019-03-04T06:19:12.279Z,23.3
2019-03-04T06:20:01.747Z,23.3
2019-03-04T06:20:51.581Z,23.2
2019-03-04T06:21:42.216Z,23.1
2019-03-04T06:22:32.227Z,23.1
2019-03-04T06:23:22.029Z,23.1
2019-03-04T06:24:12.398Z,23.1
2019-03-04T06:25:01.964Z,23.1
2019-03-04T06:25:52.716Z,23
2019-03-04T06:26:42.311Z,22.9
2019-03-04T06:27:32.616Z,22.9
2019-03-04T06:28:21.834Z,22.9
2019-03-04T06:29:12.719Z,22.9
2019-03-04T06:30:01.968Z,22.8
2019-03-04T06:30:55.102Z,22.8
2019-03-04T06:31:42.405Z,22.8
2019-03-04T06:32:33.516Z,22.7
2019-03-04T06:33:23.315Z,22.7
2019-03-04T06:34:12.018Z,22.6
2019-03-04T06:35:03.143Z,22.8
2019-03-04T06:35:52.904Z,22.8
2019-03-04T06:36:42.493Z,22.9
2019-03-04T06:37:32.548Z,22.9
2019-03-04T06:38:22.885Z,22.9
2019-03-04T06:39:12.651Z,23
2019-03-04T06:40:03.020Z,23.1
2019-03-04T06:40:53.087Z,23.1
2019-03-04T06:41:43.432Z,23.2
2019-03-04T06:42:32.952Z,23.3
2019-03-04T06:43:22.374Z,23.4
2019-03-04T06:44:14.023Z,23.5
2019-03-04T06:45:03.892Z,23.6
2019-03-04T06:45:53.612Z,23.7
2019-03-04T06:46:44.327Z,23.8
2019-03-04T06:47:34.252Z,23.9
2019-03-04T06:48:23.512Z,24
2019-03-04T06:49:14.165Z,24.1
2019-03-04T06:50:04.157Z,24.2
2019-03-04T06:50:54.892Z,24.3
2019-03-04T06:51:43.461Z,24.3
2019-03-04T06:52:34.380Z,24.3
2019-03-04T06:53:24.781Z,24.2
2019-03-04T06:54:13.904Z,24.1
2019-03-04T06:55:04.390Z,24
2019-03-04T06:55:54.303Z,23.9
2019-03-04T06:56:43.834Z,23.8
2019-03-04T06:57:36.225Z,23.8
2019-03-04T06:58:25.042Z,23.7
2019-03-04T06:59:14.532Z,23.7
2019-03-04T07:00:04.576Z,23.6
2019-03-04T07:00:55.026Z,23.5
2019-03-04T07:01:44.756Z,23.4
2019-03-04T07:02:35.311Z,23.4
2019-03-04T07:03:24.551Z,23.3
2019-03-04T07:05:50.784Z,23.2
2019-03-04T07:06:40.864Z,23.1
2019-03-04T07:07:30.894Z,23.1
2019-03-04T07:08:21.221Z,23.1
2019-03-04T07:09:11.313Z,23.1
2019-03-04T07:10:01.079Z,23.1
2019-03-04T07:10:50.291Z,23.1
2019-03-04T07:11:41.810Z,23
2019-03-04T07:12:31.776Z,22.9
2019-03-04T07:13:20.776Z,22.9
2019-03-04T07:14:11.375Z,22.9
2019-03-04T07:15:01.293Z,22.8
2019-03-04T07:15:50.920Z,22.8
2019-03-04T07:16:41.873Z,22.8
2019-03-04T07:17:31.581Z,22.8
2019-03-04T07:18:21.411Z,22.7
2019-03-04T07:19:11.461Z,22.7
2019-03-04T07:20:02.771Z,22.6
2019-03-04T07:20:52.105Z,22.8
2019-03-04T07:21:41.943Z,22.8
2019-03-04T07:22:32.221Z,22.8
2019-03-04T07:23:21.993Z,22.9
2019-03-04T07:24:12.685Z,22.9
2019-03-04T07:25:01.419Z,23
2019-03-04T07:25:52.150Z,23.1
2019-03-04T07:26:41.997Z,23.1
2019-03-04T07:27:31.515Z,23.2
2019-03-04T07:28:23.168Z,23.3
2019-03-04T07:29:14.868Z,23.4
2019-03-04T07:30:02.172Z,23.5
2019-03-04T07:30:54.212Z,23.6
2019-03-04T07:31:42.349Z,23.8
2019-03-04T07:32:32.144Z,23.9
2019-03-04T07:33:22.614Z,23.9
2019-03-04T07:34:11.973Z,24.1
2019-03-04T07:35:02.752Z,24.1
2019-03-04T07:35:53.404Z,24.1
2019-03-04T07:36:42.924Z,24.1
2019-03-04T07:37:33.524Z,24
2019-03-04T07:38:23.278Z,23.9
2019-03-04T07:39:13.095Z,23.9
2019-03-04T07:40:03.724Z,23.8
2019-03-04T07:40:53.206Z,23.7
2019-03-04T07:41:43.282Z,23.7
2019-03-04T07:42:35.201Z,23.6
2019-03-04T07:43:22.891Z,23.6
2019-03-04T07:44:12.147Z,23.6
2019-03-04T07:45:03.741Z,23.4
2019-03-04T07:45:53.917Z,23.4
2019-03-04T07:46:43.398Z,23.3
2019-03-04T07:47:32.618Z,23.3
2019-03-04T07:48:22.424Z,23.3
2019-03-04T07:49:13.573Z,23.2
2019-03-04T07:50:02.734Z,23.1
2019-03-04T07:50:52.873Z,23.1
2019-03-04T07:51:43.753Z,23.1
2019-03-04T07:52:33.311Z,23.1
2019-03-04T07:53:25.616Z,23
2019-03-04T07:54:13.108Z,23
2019-03-04T07:55:03.438Z,23
2019-03-04T07:55:54.319Z,22.9
2019-03-04T07:56:45.170Z,22.9
2019-03-04T07:57:34.923Z,22.9
2019-03-04T07:58:27.018Z,22.8
2019-03-04T07:59:15.088Z,22.8
2019-03-04T08:00:05.340Z,22.8
2019-03-04T08:00:54.486Z,22.7
2019-03-04T08:01:44.661Z,22.7
2019-03-04T08:02:34.435Z,22.6
2019-03-04T08:03:24.505Z,22.6
2019-03-04T08:04:14.305Z,22.6
2019-03-04T08:05:04.663Z,22.6
2019-03-04T08:05:54.283Z,22.6
2019-03-04T08:06:44.856Z,22.6
2019-03-04T08:07:35.085Z,22.6
2019-03-04T08:08:25.676Z,22.7
2019-03-04T08:09:15.172Z,22.8
2019-03-04T08:10:04.745Z,22.8
2019-03-04T08:10:55.033Z,22.8
2019-03-04T08:11:45.080Z,22.9
2019-03-04T08:12:35.689Z,22.9
2019-03-04T08:13:25.010Z,23
2019-03-04T08:14:15.811Z,23.1
2019-03-04T08:15:06.262Z,23.2
2019-03-04T08:15:55.443Z,23.3
2019-03-04T08:16:46.314Z,23.4
2019-03-04T08:17:36.097Z,23.5
2019-03-04T08:18:24.809Z,23.6
2019-03-04T08:19:16.434Z,23.8
2019-03-04T08:20:05.984Z,23.9
2019-03-04T08:20:56.080Z,24
2019-03-04T08:21:46.127Z,24.1
2019-03-04T08:22:36.452Z,24.1
2019-03-04T08:23:26.204Z,24
2019-03-04T08:24:15.713Z,23.9
2019-03-04T08:25:06.902Z,23.8
2019-03-04T08:25:56.926Z,23.8
2019-03-04T08:26:45.601Z,23.7
2019-03-04T08:27:36.446Z,23.6
2019-03-04T08:28:26.909Z,23.6
2019-03-04T08:29:16.875Z,23.5
2019-03-04T08:30:06.969Z,23.4
2019-03-04T08:30:57.296Z,23.4
2019-03-04T08:31:47.054Z,23.3
2019-03-04T08:32:37.180Z,23.3
2019-03-04T08:33:27.364Z,23.3
2019-03-04T08:34:17.254Z,23.3
2019-03-04T08:35:06.986Z,23.3
2019-03-04T08:35:57.091Z,23.3
2019-03-04T08:36:46.568Z,23.3
2019-03-04T08:37:37.162Z,23.3
2019-03-04T08:38:26.204Z,23.3
2019-03-04T08:39:17.306Z,23.3
2019-03-04T08:40:07.161Z,23.3
2019-03-04T08:40:57.959Z,23.3
2019-03-04T08:41:47.757Z,23.3
2019-03-04T08:42:38.076Z,23.3
2019-03-04T08:43:27.016Z,23.3
2019-03-04T08:44:17.911Z,23.3
2019-03-04T08:45:08.056Z,23.3
2019-03-04T08:45:58.044Z,23.3
2019-03-04T08:46:48.655Z,23.3
2019-03-04T08:47:38.191Z,23.3
2019-03-04T08:48:27.428Z,23.3
2019-03-04T08:49:17.225Z,23.2
2019-03-04T08:50:08.076Z,23.1
2019-03-04T08:50:58.185Z,22.9
2019-03-04T08:51:48.740Z,22.9
2019-03-04T08:52:37.148Z,22.9
2019-03-04T08:53:30.808Z,22.9
2019-03-04T08:54:18.717Z,23
2019-03-04T08:55:08.173Z,23
2019-03-04T08:55:59.101Z,23.1
2019-03-04T08:56:48.810Z,23.2
2019-03-04T08:57:37.555Z,23.3
2019-03-04T08:58:27.862Z,23.4
2019-03-04T08:59:18.723Z,23.6
2019-03-04T09:00:08.020Z,23.7
2019-03-04T09:00:59.075Z,23.9
2019-03-04T09:01:49.162Z,23.9
2019-03-04T09:02:37.893Z,24
2019-03-04T09:03:29.076Z,23.9
2019-03-04T09:04:18.562Z,23.9
2019-03-04T09:05:08.920Z,23.8
2019-03-04T09:05:58.130Z,23.7
2019-03-04T09:06:48.712Z,23.6
2019-03-04T09:07:39.855Z,23.6
2019-03-04T09:08:29.712Z,23.5
2019-03-04T09:09:19.677Z,23.4
2019-03-04T09:10:09.779Z,23.4
2019-03-04T09:10:58.762Z,23.4
2019-03-04T09:11:49.367Z,23.3
2019-03-04T09:12:41.220Z,23.3
2019-03-04T09:13:29.768Z,23.3
2019-03-04T09:14:19.254Z,23.3
2019-03-04T09:15:09.627Z,23.3
2019-03-04T09:15:59.409Z,23.3
2019-03-04T09:16:49.712Z,23.3
2019-03-04T09:17:38.654Z,23.3
2019-03-04T09:18:29.587Z,23.3
2019-03-04T09:19:20.257Z,23.3
2019-03-04T09:20:10.219Z,23.3
2019-03-04T09:21:00.037Z,23.3
2019-03-04T09:21:50.334Z,23.3
2019-03-04T09:22:40.174Z,23.3
2019-03-04T09:23:30.461Z,23.3
2019-03-04T09:24:20.001Z,23.3
2019-03-04T09:25:10.049Z,23.3
2019-03-04T09:25:59.829Z,23.3
2019-03-04T09:26:50.426Z,23.3
2019-03-04T09:27:40.674Z,23.3
2019-03-04T09:28:30.273Z,23.2
2019-03-04T09:29:20.031Z,23.2
2019-03-04T09:30:10.445Z,23.1
2019-03-04T09:31:00.426Z,22.9
2019-03-04T09:31:50.446Z,22.9
2019-03-04T09:32:40.786Z,22.9
2019-03-04T09:33:30.833Z,22.9
2019-03-04T09:34:20.873Z,22.9
2019-03-04T09:35:11.236Z,23
2019-03-04T09:36:01.571Z,23
2019-03-04T09:36:51.073Z,23.1
2019-03-04T09:37:41.374Z,23.3
2019-03-04T09:38:31.148Z,23.4
2019-03-04T09:39:21.827Z,23.6
2019-03-04T09:40:11.610Z,23.7
2019-03-04T09:41:01.671Z,23.8
2019-03-04T09:41:54.275Z,23.9
2019-03-04T09:42:42.697Z,23.8
2019-03-04T09:43:32.070Z,23.8
2019-03-04T09:44:21.823Z,23.7
2019-03-04T09:45:11.961Z,23.6
2019-03-04T09:46:01.740Z,23.6
2019-03-04T09:46:52.054Z,23.5
2019-03-04T09:47:41.805Z,23.4
2019-03-04T09:48:32.667Z,23.4
2019-03-04T09:49:22.492Z,23.3
2019-03-04T09:50:12.532Z,23.3
2019-03-04T09:51:02.036Z,23.3
2019-03-04T09:51:53.232Z,23.3
2019-03-04T09:52:41.882Z,23.3
2019-03-04T09:53:45.597Z,23.2
2019-03-04T09:54:22.251Z,23.2
2019-03-04T09:55:12.914Z,23.3
2019-03-04T09:56:02.446Z,23.3
2019-03-04T09:56:53.144Z,23.3
2019-03-04T09:57:43.080Z,23.3
2019-03-04T09:58:32.894Z,23.3
2019-03-04T09:59:23.167Z,23.3
2019-03-04T10:00:13.775Z,23.3
2019-03-04T10:01:03.282Z,23.4
2019-03-04T10:01:53.354Z,23.4
2019-03-04T10:02:43.439Z,23.4
2019-03-04T10:03:33.449Z,23.4
2019-03-04T10:04:23.234Z,23.4
2019-03-04T10:06:51.211Z,23.4
2019-03-04T10:07:40.999Z,23.4
2019-03-04T10:08:40.036Z,23.4
2019-03-04T10:09:21.069Z,23.3
2019-03-04T10:10:11.216Z,23.1
2019-03-04T10:11:00.366Z,23
2019-03-04T10:11:50.156Z,23
2019-03-04T10:12:41.861Z,22.9
2019-03-04T10:13:31.348Z,23
2019-03-04T10:14:20.909Z,23
2019-03-04T10:15:15.091Z,23.1
2019-03-04T10:16:00.984Z,23.1
2019-03-04T10:16:52.188Z,23.3
2019-03-04T10:17:40.826Z,23.4
2019-03-04T10:18:31.166Z,23.6
2019-03-04T10:19:20.643Z,23.7
2019-03-04T10:20:11.006Z,23.8
2019-03-04T10:21:01.640Z,23.9
2019-03-04T10:21:53.841Z,23.8
2019-03-04T10:22:41.776Z,23.8
2019-03-04T10:23:31.226Z,23.7
2019-03-04T10:24:21.351Z,23.6
2019-03-04T10:25:11.605Z,23.6
2019-03-04T10:26:01.708Z,23.5
2019-03-04T10:26:52.015Z,23.4
2019-03-04T10:27:41.500Z,23.4
2019-03-04T10:28:32.147Z,23.3
2019-03-04T10:29:21.908Z,23.3
2019-03-04T10:30:12.535Z,23.3
2019-03-04T10:31:02.334Z,23.3
2019-03-04T10:31:52.920Z,23.3
2019-03-04T10:32:41.857Z,23.3
2019-03-04T10:33:33.077Z,23.2
2019-03-04T10:34:22.538Z,23.3
2019-03-04T10:35:13.165Z,23.3
2019-03-04T10:36:01.820Z,23.3
2019-03-04T10:36:52.973Z,23.3
2019-03-04T10:37:43.318Z,23.3
2019-03-04T10:38:32.247Z,23.3
2019-03-04T10:39:28.560Z,23.3
2019-03-04T10:40:11.849Z,23.3
2019-03-04T10:41:05.555Z,23.3
2019-03-04T10:41:52.819Z,23.3
2019-03-04T10:42:43.423Z,23.3
2019-03-04T10:43:32.907Z,23.3
2019-03-04T10:44:23.800Z,23.3
2019-03-04T10:45:13.012Z,23.3
2019-03-04T10:46:03.374Z,23.3
2019-03-04T10:46:53.430Z,23.3
2019-03-04T10:47:44.027Z,23.3
2019-03-04T10:48:34.194Z,23.3
2019-03-04T10:49:24.132Z,23.2
2019-03-04T10:50:13.640Z,23
2019-03-04T10:51:03.425Z,23
2019-03-04T10:51:53.283Z,23
2019-03-04T10:52:44.652Z,23
2019-03-04T10:53:34.233Z,23
2019-03-04T10:54:24.216Z,23.1
2019-03-04T10:55:13.722Z,23.2
2019-03-04T10:56:04.621Z,23.3
2019-03-04T10:56:53.404Z,23.5
2019-03-04T10:57:44.831Z,23.6
2019-03-04T10:58:33.675Z,23.8
2019-03-04T10:59:24.821Z,23.8
2019-03-04T11:00:14.679Z,23.8
2019-03-04T11:01:04.743Z,23.8
2019-03-04T11:01:56.925Z,23.6
2019-03-04T11:02:44.221Z,23.5
2019-03-04T11:03:34.896Z,23.5
2019-03-04T11:04:23.874Z,23.4
2019-03-04T11:05:14.464Z,23.3
2019-03-04T11:06:04.489Z,23.3
2019-03-04T11:06:56.847Z,23.2
2019-03-04T11:07:44.680Z,23.2
2019-03-04T11:08:35.283Z,23.1
2019-03-04T11:09:25.332Z,23.1
2019-03-04T11:10:14.270Z,23.1
2019-03-04T11:11:05.388Z,23.1
2019-03-04T11:11:55.681Z,23
2019-03-04T11:12:45.773Z,23
2019-03-04T11:13:35.281Z,23
2019-03-04T11:14:25.056Z,23
2019-03-04T11:15:15.420Z,23
2019-03-04T11:16:05.474Z,23
2019-03-04T11:16:56.360Z,23
2019-03-04T11:17:45.818Z,23
2019-03-04T11:18:35.368Z,23
2019-03-04T11:19:26.336Z,23
2019-03-04T11:20:15.180Z,23.1
2019-03-04T11:21:06.077Z,23.1
2019-03-04T11:21:55.925Z,23.1
2019-03-04T11:22:45.899Z,23.1
2019-03-04T11:23:36.823Z,23.1
2019-03-04T11:24:26.880Z,23.1
2019-03-04T11:25:16.123Z,23.2
2019-03-04T11:26:06.460Z,23.2
2019-03-04T11:26:57.046Z,23.1
2019-03-04T11:27:46.252Z,23.2
2019-03-04T11:28:36.886Z,23
2019-03-04T11:29:27.000Z,22.9
2019-03-04T11:30:16.722Z,22.9
2019-03-04T11:31:06.532Z,22.8
2019-03-04T11:31:56.292Z,22.9
2019-03-04T11:32:46.651Z,22.9
2019-03-04T11:33:36.649Z,22.9
2019-03-04T11:34:26.781Z,23
2019-03-04T11:35:16.509Z,23.2
2019-03-04T11:36:07.789Z,23.3
2019-03-04T11:36:56.631Z,23.4
2019-03-04T11:37:47.527Z,23.6
2019-03-04T11:38:37.009Z,23.8
2019-03-04T11:39:27.411Z,23.8
2019-03-04T11:40:17.411Z,23.8
2019-03-04T11:41:07.478Z,23.7
2019-03-04T11:41:56.974Z,23.6
2019-03-04T11:42:48.139Z,23.6
2019-03-04T11:43:37.101Z,23.5
2019-03-04T11:44:27.999Z,23.4
2019-03-04T11:45:17.291Z,23.4
2019-03-04T11:46:07.821Z,23.3
2019-03-04T11:46:57.631Z,23.3
2019-03-04T11:47:47.922Z,23.3
2019-03-04T11:48:38.060Z,23.3
2019-03-04T11:49:27.548Z,23.2
2019-03-04T11:50:17.645Z,23.2
2019-03-04T11:51:08.206Z,23.2
2019-03-04T11:51:57.996Z,23.2
2019-03-04T11:52:48.569Z,23.2
2019-03-04T11:53:37.792Z,23.2
2019-03-04T11:54:28.189Z,23.3
2019-03-04T11:55:18.273Z,23.2
2019-03-04T11:56:08.826Z,23.3
2019-03-04T11:56:58.587Z,23.3
2019-03-04T11:57:48.931Z,23.3
2019-03-04T11:58:38.705Z,23.3
2019-03-04T11:59:28.828Z,23.3
2019-03-04T12:00:18.000Z,23.3
2019-03-04T12:01:08.415Z,23.3
2019-03-04T12:01:58.423Z,23.3
2019-03-04T12:02:48.455Z,23.3
2019-03-04T12:03:39.070Z,23.3
2019-03-04T12:04:29.418Z,23.3
2019-03-04T12:06:50.330Z,23.3
2019-03-04T12:07:40.040Z,23.3
2019-03-04T12:08:30.641Z,23.1
2019-03-04T12:09:21.001Z,23
2019-03-04T12:10:11.355Z,22.9
2019-03-04T12:11:01.079Z,22.9
2019-03-04T12:11:50.845Z,22.9
2019-03-04T12:12:40.930Z,22.9
2019-03-04T12:13:31.002Z,23
2019-03-04T12:14:21.567Z,23.1
2019-03-04T12:15:10.864Z,23.2
2019-03-04T12:16:01.442Z,23.3
2019-03-04T12:16:51.265Z,23.5
2019-03-04T12:17:41.077Z,23.6
2019-03-04T12:18:31.140Z,23.8
2019-03-04T12:19:21.167Z,23.7
2019-03-04T12:20:11.522Z,23.6
2019-03-04T12:21:02.042Z,23.6
2019-03-04T12:21:52.126Z,23.6
2019-03-04T12:22:41.602Z,23.4
2019-03-04T12:23:31.984Z,23.4
2019-03-04T12:24:22.356Z,23.4
2019-03-04T12:25:11.862Z,23.3
2019-03-04T12:26:01.069Z,23.3
2019-03-04T12:26:52.471Z,23.3
2019-03-04T12:27:41.786Z,23.2
2019-03-04T12:28:32.311Z,23.2
2019-03-04T12:29:22.689Z,23.2
2019-03-04T12:30:11.656Z,23.2
2019-03-04T12:31:03.036Z,23.1
2019-03-04T12:31:51.801Z,23.2
2019-03-04T12:32:42.903Z,23.2
2019-03-04T12:33:32.910Z,23.2
2019-03-04T12:34:32.450Z,23.2
2019-03-04T12:35:11.948Z,23.2
2019-03-04T12:36:02.561Z,23.3
2019-03-04T12:36:52.352Z,23.3
2019-03-04T12:37:43.524Z,23.3
2019-03-04T12:38:33.648Z,23.3
2019-03-04T12:39:22.781Z,23.3
2019-03-04T12:40:13.265Z,23.3
2019-03-04T12:41:03.183Z,23.3
2019-03-04T12:41:56.016Z,23.3
2019-03-04T12:42:43.626Z,23.3
2019-03-04T12:43:33.390Z,23.3
2019-03-04T12:44:22.343Z,23.3
2019-03-04T12:45:13.740Z,23.3
2019-03-04T12:46:02.705Z,23.3
2019-03-04T12:46:53.372Z,23.3
2019-03-04T12:47:43.678Z,23.3
2019-03-04T12:48:33.770Z,23.1
2019-03-04T12:49:24.380Z,23
2019-03-04T12:50:12.752Z,23
2019-03-04T12:51:03.688Z,22.9
2019-03-04T12:51:52.860Z,23
2019-03-04T12:52:43.768Z,23
2019-03-04T12:53:44.382Z,23.1
2019-03-04T12:54:23.837Z,23.1
2019-03-04T12:55:13.710Z,23.3
2019-03-04T12:56:03.412Z,23.4
2019-03-04T12:56:53.795Z,23.6
2019-03-04T12:57:44.075Z,23.7
2019-03-04T12:58:33.874Z,23.8
2019-03-04T12:59:23.195Z,23.7
2019-03-04T13:00:13.038Z,23.6
2019-03-04T13:01:04.389Z,23.6
2019-03-04T13:01:54.622Z,23.5
2019-03-04T13:02:44.696Z,23.4
2019-03-04T13:03:34.499Z,23.4
2019-03-04T13:04:24.547Z,23.3
2019-03-04T13:05:14.116Z,23.3
2019-03-04T13:06:04.404Z,23.3
2019-03-04T13:06:55.009Z,23.3
2019-03-04T13:07:45.361Z,23.3
2019-03-04T13:08:35.671Z,23.3
2019-03-04T13:09:24.401Z,23.3
2019-03-04T13:10:14.727Z,23.3
2019-03-04T13:11:05.572Z,23.3
2019-03-04T13:11:54.550Z,23.3
2019-03-04T13:12:45.189Z,23.3
2019-03-04T13:13:34.714Z,23.4
2019-03-04T13:14:25.551Z,23.4
2019-03-04T13:15:14.779Z,23.5
2019-03-04T13:16:04.887Z,23.5
2019-03-04T13:16:56.020Z,23.5
2019-03-04T13:17:45.526Z,23.6
2019-03-04T13:18:36.453Z,23.6
2019-03-04T13:19:25.423Z,23.6
2019-03-04T13:20:15.391Z,23.6
2019-03-04T13:21:05.746Z,23.6
2019-03-04T13:21:54.987Z,23.6
2019-03-04T13:22:46.459Z,23.6
2019-03-04T13:23:35.345Z,23.6
2019-03-04T13:24:26.083Z,23.6
2019-03-04T13:25:15.756Z,23.6
2019-03-04T13:26:06.083Z,23.6
2019-03-04T13:26:56.410Z,23.6
2019-03-04T13:27:45.134Z,23.6
2019-03-04T13:28:35.973Z,23.4
2019-03-04T13:29:26.605Z,23.3
2019-03-04T13:30:16.390Z,23.2
2019-03-04T13:31:21.649Z,23.2
2019-03-04T13:31:56.853Z,23.2
2019-03-04T13:32:46.873Z,23.2
2019-03-04T13:33:37.494Z,23.2
2019-03-04T13:34:25.983Z,23.3
2019-03-04T13:35:27.514Z,23.4
2019-03-04T13:36:05.965Z,23.6
2019-03-04T13:36:56.990Z,23.8
2019-03-04T13:37:46.745Z,23.9
2019-03-04T13:38:37.295Z,23.9
2019-03-04T13:39:27.178Z,23.8
2019-03-04T13:40:16.318Z,23.8
2019-03-04T13:41:06.693Z,23.7
2019-03-04T13:41:56.772Z,23.6
2019-03-04T13:42:49.378Z,23.6
2019-03-04T13:43:36.857Z,23.5
2019-03-04T13:44:27.499Z,23.4
2019-03-04T13:45:16.797Z,23.4
2019-03-04T13:46:07.024Z,23.4
2019-03-04T13:46:56.819Z,23.4
2019-03-04T13:47:47.962Z,23.4
2019-03-04T13:48:37.742Z,23.3
2019-03-04T13:49:27.004Z,23.3
2019-03-04T13:50:18.054Z,23.3
2019-03-04T13:51:08.689Z,23.3
2019-03-04T13:51:57.146Z,23.3
2019-03-04T13:52:48.776Z,23.4
2019-03-04T13:53:38.329Z,23.4
2019-03-04T13:54:28.351Z,23.4
2019-03-04T13:55:20.799Z,23.4
2019-03-04T13:56:07.454Z,23.4
2019-03-04T13:56:57.198Z,23.4
2019-03-04T13:57:48.037Z,23.4
2019-03-04T13:58:38.649Z,23.4
2019-03-04T13:59:29.036Z,23.4
2019-03-04T14:00:18.043Z,23.4
2019-03-04T14:01:08.804Z,23.4
2019-03-04T14:01:59.197Z,23.5
2019-03-04T14:02:48.956Z,23.4
2019-03-04T14:03:37.899Z,23.4
2019-03-04T14:04:29.116Z,23.4
2019-03-04T14:05:19.473Z,23.4
2019-03-04T14:08:07.663Z,23.4
2019-03-04T16:07:50.317Z,23.8
2019-03-04T16:08:40.382Z,23.8
2019-03-04T16:09:30.284Z,23.8
2019-03-04T16:10:19.212Z,23.8
2019-03-04T16:11:09.993Z,23.6
2019-03-04T16:12:00.334Z,23.4
2019-03-04T16:12:50.926Z,23.3
2019-03-04T16:13:39.981Z,23.3
2019-03-04T16:14:31.102Z,23.2
2019-03-04T16:15:20.645Z,23.2
2019-03-04T16:16:10.718Z,23.2